sensor_id;sensor_type;location;lat;lon;timestamp;P1;durP1;ratioP1;P2;durP2;ratioP2
30398;SDS011;17195;50.838;7.214;2023-01-29T00:01:24;43.17;;;24.75;;
30398;SDS011;17195;50.838;7.214;2023-01-29T00:03:50;43.90;;;25.65;;
30398;SDS011;17195;50.838;7.214;2023-01-29T00:06:16;38.70;;;21.90;;
30398;SDS011;17195;50.838;7.214;2023-01-29T00:08:42;36.95;;;22.35;;
30398;SDS011;17195;50.838;7.214;2023-01-29T00:11:08;43.08;;;24.85;;
30398;SDS011;17195;50.838;7.214;2023-01-29T00:13:34;45.17;;;26.60;;
30398;SDS011;17195;50.838;7.214;2023-01-29T00:16:00;41.83;;;24.67;;
30398;SDS011;17195;50.838;7.214;2023-01-29T00:18:26;41.78;;;24.35;;
30398;SDS011;17195;50.838;7.214;2023-01-29T00:20:52;45.35;;;24.98;;
30398;SDS011;17195;50.838;7.214;2023-01-29T00:23:18;49.90;;;26.77;;
30398;SDS011;17195;50.838;7.214;2023-01-29T00:25:44;47.20;;;27.88;;
30398;SDS011;17195;50.838;7.214;2023-01-29T00:28:10;47.67;;;26.83;;
30398;SDS011;17195;50.838;7.214;2023-01-29T00:30:36;52.75;;;27.17;;
30398;SDS011;17195;50.838;7.214;2023-01-29T00:33:01;49.85;;;27.65;;
30398;SDS011;17195;50.838;7.214;2023-01-29T00:35:28;49.22;;;26.90;;
30398;SDS011;17195;50.838;7.214;2023-01-29T00:37:54;56.72;;;28.50;;
30398;SDS011;17195;50.838;7.214;2023-01-29T00:40:20;49.00;;;27.30;;
30398;SDS011;17195;50.838;7.214;2023-01-29T00:42:46;50.95;;;26.73;;
30398;SDS011;17195;50.838;7.214;2023-01-29T00:45:30;49.67;;;27.45;;
30398;SDS011;17195;50.838;7.214;2023-01-29T00:47:56;52.08;;;27.45;;
30398;SDS011;17195;50.838;7.214;2023-01-29T00:50:21;54.85;;;29.23;;
30398;SDS011;17195;50.838;7.214;2023-01-29T00:52:47;56.20;;;29.33;;
30398;SDS011;17195;50.838;7.214;2023-01-29T00:55:13;61.72;;;30.73;;
30398;SDS011;17195;50.838;7.214;2023-01-29T00:57:39;61.40;;;31.17;;
30398;SDS011;17195;50.838;7.214;2023-01-29T01:00:06;63.42;;;30.58;;
30398;SDS011;17195;50.838;7.214;2023-01-29T01:02:33;65.18;;;30.80;;
30398;SDS011;17195;50.838;7.214;2023-01-29T01:05:17;62.45;;;28.65;;
30398;SDS011;17195;50.838;7.214;2023-01-29T01:07:47;56.63;;;28.35;;
30398;SDS011;17195;50.838;7.214;2023-01-29T01:10:17;53.45;;;28.27;;
30398;SDS011;17195;50.838;7.214;2023-01-29T01:12:45;53.33;;;27.08;;
30398;SDS011;17195;50.838;7.214;2023-01-29T01:15:12;50.90;;;27.02;;
30398;SDS011;17195;50.838;7.214;2023-01-29T01:17:38;55.90;;;26.83;;
30398;SDS011;17195;50.838;7.214;2023-01-29T01:20:03;55.00;;;27.70;;
30398;SDS011;17195;50.838;7.214;2023-01-29T01:22:29;59.30;;;27.77;;
30398;SDS011;17195;50.838;7.214;2023-01-29T01:24:55;53.03;;;27.45;;
30398;SDS011;17195;50.838;7.214;2023-01-29T01:27:21;49.75;;;25.83;;
30398;SDS011;17195;50.838;7.214;2023-01-29T01:29:47;53.95;;;26.98;;
30398;SDS011;17195;50.838;7.214;2023-01-29T01:32:12;47.83;;;26.23;;
30398;SDS011;17195;50.838;7.214;2023-01-29T01:34:38;44.83;;;24.42;;
30398;SDS011;17195;50.838;7.214;2023-01-29T01:37:03;50.40;;;25.77;;
30398;SDS011;17195;50.838;7.214;2023-01-29T01:39:29;47.20;;;24.35;;
30398;SDS011;17195;50.838;7.214;2023-01-29T01:41:54;45.50;;;25.05;;
30398;SDS011;17195;50.838;7.214;2023-01-29T01:47:36;49.20;;;24.77;;
30398;SDS011;17195;50.838;7.214;2023-01-29T01:50:52;49.10;;;25.55;;
30398;SDS011;17195;50.838;7.214;2023-01-29T01:52:57;44.05;;;24.05;;
30398;SDS011;17195;50.838;7.214;2023-01-29T01:55:48;47.10;;;24.70;;
30398;SDS011;17195;50.838;7.214;2023-01-29T01:58:22;48.70;;;25.13;;
30398;SDS011;17195;50.838;7.214;2023-01-29T02:00:52;45.95;;;24.88;;
30398;SDS011;17195;50.838;7.214;2023-01-29T02:03:19;46.60;;;24.40;;
30398;SDS011;17195;50.838;7.214;2023-01-29T02:06:05;42.97;;;23.45;;
30398;SDS011;17195;50.838;7.214;2023-01-29T02:09:01;46.42;;;24.40;;
30398;SDS011;17195;50.838;7.214;2023-01-29T02:12:00;40.35;;;22.25;;
30398;SDS011;17195;50.838;7.214;2023-01-29T02:14:34;44.70;;;23.08;;
30398;SDS011;17195;50.838;7.214;2023-01-29T02:17:04;48.63;;;24.10;;
30398;SDS011;17195;50.838;7.214;2023-01-29T02:19:40;47.53;;;24.20;;
30398;SDS011;17195;50.838;7.214;2023-01-29T02:28:52;41.15;;;22.60;;
30398;SDS011;17195;50.838;7.214;2023-01-29T02:31:47;42.05;;;23.70;;
30398;SDS011;17195;50.838;7.214;2023-01-29T02:37:24;48.42;;;23.60;;
30398;SDS011;17195;50.838;7.214;2023-01-29T02:40:04;46.72;;;24.02;;
30398;SDS011;17195;50.838;7.214;2023-01-29T02:42:51;40.78;;;21.75;;
30398;SDS011;17195;50.838;7.214;2023-01-29T02:45:21;44.42;;;23.77;;
30398;SDS011;17195;50.838;7.214;2023-01-29T02:47:56;42.65;;;22.73;;
30398;SDS011;17195;50.838;7.214;2023-01-29T02:50:25;44.92;;;22.88;;
30398;SDS011;17195;50.838;7.214;2023-01-29T02:53:15;41.90;;;22.70;;
30398;SDS011;17195;50.838;7.214;2023-01-29T02:55:44;39.08;;;22.58;;
30398;SDS011;17195;50.838;7.214;2023-01-29T02:58:16;40.80;;;22.02;;
30398;SDS011;17195;50.838;7.214;2023-01-29T03:00:49;40.65;;;21.55;;
30398;SDS011;17195;50.838;7.214;2023-01-29T03:03:24;42.60;;;22.90;;
30398;SDS011;17195;50.838;7.214;2023-01-29T03:08:47;44.80;;;23.02;;
30398;SDS011;17195;50.838;7.214;2023-01-29T03:11:20;44.33;;;22.63;;
30398;SDS011;17195;50.838;7.214;2023-01-29T03:16:25;46.65;;;22.85;;
30398;SDS011;17195;50.838;7.214;2023-01-29T03:19:00;40.65;;;22.90;;
30398;SDS011;17195;50.838;7.214;2023-01-29T03:21:30;44.95;;;22.02;;
30398;SDS011;17195;50.838;7.214;2023-01-29T03:24:17;47.25;;;23.77;;
30398;SDS011;17195;50.838;7.214;2023-01-29T03:27:15;40.47;;;21.80;;
30398;SDS011;17195;50.838;7.214;2023-01-29T03:30:03;47.60;;;23.33;;
30398;SDS011;17195;50.838;7.214;2023-01-29T03:32:49;41.28;;;22.70;;
30398;SDS011;17195;50.838;7.214;2023-01-29T03:35:17;48.40;;;23.20;;
30398;SDS011;17195;50.838;7.214;2023-01-29T03:37:57;38.22;;;20.77;;
30398;SDS011;17195;50.838;7.214;2023-01-29T03:40:23;44.67;;;23.00;;
30398;SDS011;17195;50.838;7.214;2023-01-29T03:43:07;42.17;;;22.30;;
30398;SDS011;17195;50.838;7.214;2023-01-29T03:57:40;41.20;;;21.90;;
30398;SDS011;17195;50.838;7.214;2023-01-29T04:02:24;45.17;;;22.58;;
30398;SDS011;17195;50.838;7.214;2023-01-29T04:05:01;42.00;;;22.17;;
30398;SDS011;17195;50.838;7.214;2023-01-29T04:07:33;37.33;;;21.52;;
30398;SDS011;17195;50.838;7.214;2023-01-29T04:10:05;41.33;;;21.75;;
30398;SDS011;17195;50.838;7.214;2023-01-29T04:12:41;44.45;;;21.63;;
30398;SDS011;17195;50.838;7.214;2023-01-29T04:15:13;43.20;;;22.77;;
30398;SDS011;17195;50.838;7.214;2023-01-29T04:17:41;41.28;;;20.63;;
30398;SDS011;17195;50.838;7.214;2023-01-29T04:20:10;40.10;;;21.90;;
30398;SDS011;17195;50.838;7.214;2023-01-29T04:22:37;39.90;;;21.42;;
30398;SDS011;17195;50.838;7.214;2023-01-29T04:25:05;45.17;;;22.15;;
30398;SDS011;17195;50.838;7.214;2023-01-29T04:30:32;38.92;;;19.70;;
30398;SDS011;17195;50.838;7.214;2023-01-29T04:36:01;36.22;;;20.15;;
30398;SDS011;17195;50.838;7.214;2023-01-29T04:41:41;39.15;;;20.00;;
30398;SDS011;17195;50.838;7.214;2023-01-29T04:44:20;36.42;;;19.92;;
30398;SDS011;17195;50.838;7.214;2023-01-29T04:47:04;38.85;;;21.08;;
30398;SDS011;17195;50.838;7.214;2023-01-29T04:49:44;38.15;;;21.20;;
30398;SDS011;17195;50.838;7.214;2023-01-29T04:52:48;43.03;;;20.95;;
30398;SDS011;17195;50.838;7.214;2023-01-29T05:00:45;45.55;;;20.23;;
30398;SDS011;17195;50.838;7.214;2023-01-29T05:03:14;36.78;;;20.08;;
30398;SDS011;17195;50.838;7.214;2023-01-29T05:05:41;35.95;;;20.23;;
30398;SDS011;17195;50.838;7.214;2023-01-29T05:08:12;40.00;;;20.48;;
30398;SDS011;17195;50.838;7.214;2023-01-29T05:10:41;45.10;;;20.63;;
30398;SDS011;17195;50.838;7.214;2023-01-29T05:13:07;41.20;;;21.98;;
30398;SDS011;17195;50.838;7.214;2023-01-29T05:15:38;38.13;;;19.85;;
30398;SDS011;17195;50.838;7.214;2023-01-29T05:18:06;37.05;;;20.40;;
30398;SDS011;17195;50.838;7.214;2023-01-29T05:20:33;38.10;;;21.23;;
30398;SDS011;17195;50.838;7.214;2023-01-29T05:23:07;36.60;;;19.60;;
30398;SDS011;17195;50.838;7.214;2023-01-29T05:25:43;41.78;;;21.85;;
30398;SDS011;17195;50.838;7.214;2023-01-29T05:28:10;41.92;;;20.25;;
30398;SDS011;17195;50.838;7.214;2023-01-29T05:30:40;39.30;;;20.67;;
30398;SDS011;17195;50.838;7.214;2023-01-29T05:33:16;39.00;;;21.30;;
30398;SDS011;17195;50.838;7.214;2023-01-29T05:35:46;38.72;;;20.65;;
30398;SDS011;17195;50.838;7.214;2023-01-29T05:38:13;41.40;;;21.33;;
30398;SDS011;17195;50.838;7.214;2023-01-29T05:40:39;41.67;;;22.45;;
30398;SDS011;17195;50.838;7.214;2023-01-29T05:43:05;40.85;;;21.15;;
30398;SDS011;17195;50.838;7.214;2023-01-29T05:45:37;42.28;;;21.60;;
30398;SDS011;17195;50.838;7.214;2023-01-29T05:48:03;41.95;;;21.30;;
30398;SDS011;17195;50.838;7.214;2023-01-29T05:50:29;41.90;;;21.23;;
30398;SDS011;17195;50.838;7.214;2023-01-29T05:52:55;43.03;;;22.27;;
30398;SDS011;17195;50.838;7.214;2023-01-29T05:55:21;43.95;;;22.25;;
30398;SDS011;17195;50.838;7.214;2023-01-29T05:57:47;40.25;;;21.42;;
30398;SDS011;17195;50.838;7.214;2023-01-29T06:00:13;42.53;;;22.38;;
30398;SDS011;17195;50.838;7.214;2023-01-29T06:02:39;40.83;;;21.27;;
30398;SDS011;17195;50.838;7.214;2023-01-29T06:05:04;41.75;;;22.60;;
30398;SDS011;17195;50.838;7.214;2023-01-29T06:07:30;41.55;;;20.83;;
30398;SDS011;17195;50.838;7.214;2023-01-29T06:09:56;40.03;;;20.88;;
30398;SDS011;17195;50.838;7.214;2023-01-29T06:12:21;42.13;;;21.15;;
30398;SDS011;17195;50.838;7.214;2023-01-29T06:14:47;41.85;;;21.20;;
30398;SDS011;17195;50.838;7.214;2023-01-29T06:17:12;37.88;;;20.85;;
30398;SDS011;17195;50.838;7.214;2023-01-29T06:19:38;44.60;;;22.70;;
30398;SDS011;17195;50.838;7.214;2023-01-29T06:22:03;45.38;;;21.55;;
30398;SDS011;17195;50.838;7.214;2023-01-29T06:24:29;44.30;;;22.10;;
30398;SDS011;17195;50.838;7.214;2023-01-29T06:26:54;42.00;;;21.95;;
30398;SDS011;17195;50.838;7.214;2023-01-29T06:29:20;47.50;;;23.02;;
30398;SDS011;17195;50.838;7.214;2023-01-29T06:31:45;43.50;;;22.55;;
30398;SDS011;17195;50.838;7.214;2023-01-29T06:34:11;43.25;;;24.33;;
30398;SDS011;17195;50.838;7.214;2023-01-29T06:36:36;43.35;;;22.83;;
30398;SDS011;17195;50.838;7.214;2023-01-29T06:39:02;41.97;;;22.40;;
30398;SDS011;17195;50.838;7.214;2023-01-29T06:41:28;44.58;;;23.05;;
30398;SDS011;17195;50.838;7.214;2023-01-29T06:43:53;44.08;;;22.90;;
30398;SDS011;17195;50.838;7.214;2023-01-29T06:46:19;50.58;;;24.10;;
30398;SDS011;17195;50.838;7.214;2023-01-29T06:48:44;49.10;;;23.77;;
30398;SDS011;17195;50.838;7.214;2023-01-29T06:51:10;47.13;;;24.20;;
30398;SDS011;17195;50.838;7.214;2023-01-29T06:53:36;47.25;;;23.88;;
30398;SDS011;17195;50.838;7.214;2023-01-29T06:56:03;48.97;;;24.23;;
30398;SDS011;17195;50.838;7.214;2023-01-29T06:58:30;42.72;;;21.98;;
30398;SDS011;17195;50.838;7.214;2023-01-29T07:01:02;50.90;;;23.65;;
30398;SDS011;17195;50.838;7.214;2023-01-29T07:03:32;47.90;;;23.02;;
30398;SDS011;17195;50.838;7.214;2023-01-29T07:05:57;50.63;;;24.92;;
30398;SDS011;17195;50.838;7.214;2023-01-29T07:08:23;41.15;;;21.92;;
30398;SDS011;17195;50.838;7.214;2023-01-29T07:10:49;44.08;;;22.73;;
30398;SDS011;17195;50.838;7.214;2023-01-29T07:13:15;42.63;;;23.13;;
30398;SDS011;17195;50.838;7.214;2023-01-29T07:15:41;45.47;;;23.33;;
30398;SDS011;17195;50.838;7.214;2023-01-29T07:18:07;43.72;;;23.48;;
30398;SDS011;17195;50.838;7.214;2023-01-29T07:20:37;37.58;;;22.15;;
30398;SDS011;17195;50.838;7.214;2023-01-29T07:23:03;39.78;;;21.38;;
30398;SDS011;17195;50.838;7.214;2023-01-29T07:25:29;42.25;;;23.58;;
30398;SDS011;17195;50.838;7.214;2023-01-29T07:27:55;48.47;;;25.25;;
30398;SDS011;17195;50.838;7.214;2023-01-29T07:30:23;53.85;;;26.92;;
30398;SDS011;17195;50.838;7.214;2023-01-29T07:32:49;50.65;;;25.92;;
30398;SDS011;17195;50.838;7.214;2023-01-29T07:35:14;48.13;;;24.88;;
30398;SDS011;17195;50.838;7.214;2023-01-29T07:37:40;44.08;;;23.58;;
30398;SDS011;17195;50.838;7.214;2023-01-29T07:40:06;46.95;;;24.33;;
30398;SDS011;17195;50.838;7.214;2023-01-29T07:42:35;44.33;;;24.27;;
30398;SDS011;17195;50.838;7.214;2023-01-29T07:45:02;40.45;;;22.23;;
30398;SDS011;17195;50.838;7.214;2023-01-29T07:47:27;40.10;;;22.13;;
30398;SDS011;17195;50.838;7.214;2023-01-29T07:49:53;44.13;;;23.67;;
30398;SDS011;17195;50.838;7.214;2023-01-29T07:52:18;40.55;;;22.38;;
30398;SDS011;17195;50.838;7.214;2023-01-29T07:54:44;41.60;;;23.63;;
30398;SDS011;17195;50.838;7.214;2023-01-29T07:57:09;40.55;;;23.80;;
30398;SDS011;17195;50.838;7.214;2023-01-29T07:59:35;46.10;;;23.15;;
30398;SDS011;17195;50.838;7.214;2023-01-29T08:02:00;46.45;;;23.30;;
30398;SDS011;17195;50.838;7.214;2023-01-29T08:04:26;46.60;;;24.42;;
30398;SDS011;17195;50.838;7.214;2023-01-29T08:06:51;43.33;;;23.35;;
30398;SDS011;17195;50.838;7.214;2023-01-29T08:09:17;40.88;;;22.77;;
30398;SDS011;17195;50.838;7.214;2023-01-29T08:11:42;46.17;;;24.55;;
30398;SDS011;17195;50.838;7.214;2023-01-29T08:14:08;47.08;;;25.63;;
30398;SDS011;17195;50.838;7.214;2023-01-29T08:16:34;43.15;;;23.83;;
30398;SDS011;17195;50.838;7.214;2023-01-29T08:19:02;46.35;;;26.98;;
30398;SDS011;17195;50.838;7.214;2023-01-29T08:21:28;47.55;;;28.05;;
30398;SDS011;17195;50.838;7.214;2023-01-29T08:23:53;48.05;;;26.20;;
30398;SDS011;17195;50.838;7.214;2023-01-29T08:26:19;54.95;;;30.00;;
30398;SDS011;17195;50.838;7.214;2023-01-29T08:28:44;61.25;;;30.50;;
30398;SDS011;17195;50.838;7.214;2023-01-29T08:31:14;62.28;;;32.45;;
30398;SDS011;17195;50.838;7.214;2023-01-29T08:33:40;62.13;;;33.55;;
30398;SDS011;17195;50.838;7.214;2023-01-29T08:36:06;61.17;;;31.50;;
30398;SDS011;17195;50.838;7.214;2023-01-29T08:38:32;59.10;;;31.63;;
30398;SDS011;17195;50.838;7.214;2023-01-29T08:40:58;65.07;;;33.67;;
30398;SDS011;17195;50.838;7.214;2023-01-29T08:43:23;68.18;;;35.50;;
30398;SDS011;17195;50.838;7.214;2023-01-29T08:45:49;68.57;;;35.58;;
30398;SDS011;17195;50.838;7.214;2023-01-29T08:48:14;67.35;;;35.95;;
30398;SDS011;17195;50.838;7.214;2023-01-29T08:50:40;75.00;;;39.58;;
30398;SDS011;17195;50.838;7.214;2023-01-29T08:53:06;67.20;;;35.25;;
30398;SDS011;17195;50.838;7.214;2023-01-29T08:55:37;59.08;;;32.78;;
30398;SDS011;17195;50.838;7.214;2023-01-29T08:58:04;55.67;;;31.13;;
30398;SDS011;17195;50.838;7.214;2023-01-29T09:00:31;77.85;;;34.75;;
30398;SDS011;17195;50.838;7.214;2023-01-29T09:02:58;60.15;;;33.42;;
30398;SDS011;17195;50.838;7.214;2023-01-29T09:08:46;59.97;;;32.15;;
30398;SDS011;17195;50.838;7.214;2023-01-29T09:11:13;62.28;;;32.97;;
30398;SDS011;17195;50.838;7.214;2023-01-29T09:13:39;60.75;;;33.03;;
30398;SDS011;17195;50.838;7.214;2023-01-29T09:16:04;93.47;;;43.88;;
30398;SDS011;17195;50.838;7.214;2023-01-29T09:18:30;73.90;;;38.58;;
30398;SDS011;17195;50.838;7.214;2023-01-29T09:20:56;72.57;;;36.80;;
30398;SDS011;17195;50.838;7.214;2023-01-29T09:23:22;59.38;;;32.38;;
30398;SDS011;17195;50.838;7.214;2023-01-29T09:25:48;64.28;;;33.17;;
30398;SDS011;17195;50.838;7.214;2023-01-29T09:28:14;67.82;;;33.83;;
30398;SDS011;17195;50.838;7.214;2023-01-29T09:30:42;66.78;;;35.08;;
30398;SDS011;17195;50.838;7.214;2023-01-29T09:33:08;63.30;;;32.72;;
30398;SDS011;17195;50.838;7.214;2023-01-29T09:35:33;63.72;;;34.22;;
30398;SDS011;17195;50.838;7.214;2023-01-29T09:37:59;64.93;;;33.55;;
30398;SDS011;17195;50.838;7.214;2023-01-29T09:40:26;55.95;;;31.15;;
30398;SDS011;17195;50.838;7.214;2023-01-29T09:43:16;62.78;;;32.25;;
30398;SDS011;17195;50.838;7.214;2023-01-29T09:45:57;56.72;;;31.60;;
30398;SDS011;17195;50.838;7.214;2023-01-29T09:48:30;62.33;;;31.48;;
30398;SDS011;17195;50.838;7.214;2023-01-29T09:50:58;63.17;;;33.00;;
30398;SDS011;17195;50.838;7.214;2023-01-29T09:53:30;59.03;;;32.65;;
30398;SDS011;17195;50.838;7.214;2023-01-29T09:56:20;62.50;;;31.25;;
30398;SDS011;17195;50.838;7.214;2023-01-29T09:58:52;59.03;;;31.15;;
30398;SDS011;17195;50.838;7.214;2023-01-29T10:01:35;54.95;;;30.13;;
30398;SDS011;17195;50.838;7.214;2023-01-29T10:04:33;57.72;;;30.65;;
30398;SDS011;17195;50.838;7.214;2023-01-29T10:07:41;66.53;;;33.78;;
30398;SDS011;17195;50.838;7.214;2023-01-29T10:16:19;63.80;;;32.25;;
30398;SDS011;17195;50.838;7.214;2023-01-29T10:26:36;58.17;;;30.90;;
30398;SDS011;17195;50.838;7.214;2023-01-29T10:29:04;55.88;;;31.48;;
30398;SDS011;17195;50.838;7.214;2023-01-29T10:31:32;60.33;;;32.22;;
30398;SDS011;17195;50.838;7.214;2023-01-29T10:36:48;60.80;;;32.95;;
30398;SDS011;17195;50.838;7.214;2023-01-29T10:39:18;72.50;;;37.45;;
30398;SDS011;17195;50.838;7.214;2023-01-29T10:42:01;56.65;;;30.67;;
30398;SDS011;17195;50.838;7.214;2023-01-29T10:44:33;59.15;;;32.70;;
30398;SDS011;17195;50.838;7.214;2023-01-29T10:54:54;53.08;;;30.38;;
30398;SDS011;17195;50.838;7.214;2023-01-29T11:00:26;56.53;;;32.85;;
30398;SDS011;17195;50.838;7.214;2023-01-29T11:02:57;50.95;;;30.55;;
30398;SDS011;17195;50.838;7.214;2023-01-29T11:05:42;56.75;;;30.50;;
30398;SDS011;17195;50.838;7.214;2023-01-29T11:08:15;49.85;;;27.08;;
30398;SDS011;17195;50.838;7.214;2023-01-29T11:10:51;48.63;;;28.33;;
30398;SDS011;17195;50.838;7.214;2023-01-29T11:13:19;47.90;;;27.97;;
30398;SDS011;17195;50.838;7.214;2023-01-29T11:15:50;49.47;;;27.13;;
30398;SDS011;17195;50.838;7.214;2023-01-29T11:18:16;45.92;;;27.40;;
30398;SDS011;17195;50.838;7.214;2023-01-29T11:20:42;51.03;;;28.23;;
30398;SDS011;17195;50.838;7.214;2023-01-29T11:23:25;42.92;;;25.45;;
30398;SDS011;17195;50.838;7.214;2023-01-29T11:25:53;40.80;;;23.88;;
30398;SDS011;17195;50.838;7.214;2023-01-29T11:28:37;43.80;;;25.73;;
30398;SDS011;17195;50.838;7.214;2023-01-29T11:34:04;45.40;;;24.98;;
30398;SDS011;17195;50.838;7.214;2023-01-29T11:36:38;42.78;;;25.58;;
30398;SDS011;17195;50.838;7.214;2023-01-29T11:41:40;39.88;;;24.33;;
30398;SDS011;17195;50.838;7.214;2023-01-29T11:46:45;47.63;;;27.02;;
30398;SDS011;17195;50.838;7.214;2023-01-29T11:49:23;44.90;;;25.95;;
30398;SDS011;17195;50.838;7.214;2023-01-29T11:52:00;47.58;;;24.65;;
30398;SDS011;17195;50.838;7.214;2023-01-29T11:54:30;47.13;;;27.05;;
30398;SDS011;17195;50.838;7.214;2023-01-29T11:57:01;44.22;;;25.33;;
30398;SDS011;17195;50.838;7.214;2023-01-29T11:59:31;41.00;;;23.73;;
30398;SDS011;17195;50.838;7.214;2023-01-29T12:02:27;43.13;;;23.95;;
30398;SDS011;17195;50.838;7.214;2023-01-29T12:05:18;40.15;;;23.45;;
30398;SDS011;17195;50.838;7.214;2023-01-29T12:07:47;51.35;;;27.15;;
30398;SDS011;17195;50.838;7.214;2023-01-29T12:10:33;51.03;;;30.20;;
30398;SDS011;17195;50.838;7.214;2023-01-29T12:20:41;52.67;;;29.23;;
30398;SDS011;17195;50.838;7.214;2023-01-29T12:31:56;49.05;;;27.42;;
30398;SDS011;17195;50.838;7.214;2023-01-29T12:35:02;42.35;;;24.45;;
30398;SDS011;17195;50.838;7.214;2023-01-29T12:39:48;42.50;;;25.20;;
30398;SDS011;17195;50.838;7.214;2023-01-29T12:42:19;44.80;;;25.25;;
30398;SDS011;17195;50.838;7.214;2023-01-29T12:47:30;46.78;;;26.20;;
30398;SDS011;17195;50.838;7.214;2023-01-29T12:50:04;67.35;;;35.25;;
30398;SDS011;17195;50.838;7.214;2023-01-29T12:52:38;52.55;;;28.58;;
30398;SDS011;17195;50.838;7.214;2023-01-29T12:58:03;48.13;;;27.27;;
30398;SDS011;17195;50.838;7.214;2023-01-29T13:00:47;55.03;;;28.83;;
30398;SDS011;17195;50.838;7.214;2023-01-29T13:03:18;51.15;;;27.50;;
30398;SDS011;17195;50.838;7.214;2023-01-29T13:06:00;87.38;;;44.30;;
30398;SDS011;17195;50.838;7.214;2023-01-29T13:11:01;60.22;;;33.45;;
30398;SDS011;17195;50.838;7.214;2023-01-29T13:13:42;73.82;;;42.47;;
30398;SDS011;17195;50.838;7.214;2023-01-29T13:16:16;52.97;;;32.05;;
30398;SDS011;17195;50.838;7.214;2023-01-29T13:21:51;81.13;;;36.00;;
30398;SDS011;17195;50.838;7.214;2023-01-29T13:24:20;46.38;;;26.90;;
30398;SDS011;17195;50.838;7.214;2023-01-29T13:26:48;37.72;;;23.48;;
30398;SDS011;17195;50.838;7.214;2023-01-29T13:29:22;37.97;;;23.50;;
30398;SDS011;17195;50.838;7.214;2023-01-29T13:31:49;35.42;;;22.33;;
30398;SDS011;17195;50.838;7.214;2023-01-29T13:34:24;38.13;;;22.30;;
30398;SDS011;17195;50.838;7.214;2023-01-29T13:36:57;38.35;;;22.52;;
30398;SDS011;17195;50.838;7.214;2023-01-29T13:39:46;35.15;;;22.38;;
30398;SDS011;17195;50.838;7.214;2023-01-29T13:42:18;29.10;;;18.58;;
30398;SDS011;17195;50.838;7.214;2023-01-29T13:45:04;38.85;;;23.67;;
30398;SDS011;17195;50.838;7.214;2023-01-29T13:47:32;49.25;;;28.10;;
30398;SDS011;17195;50.838;7.214;2023-01-29T13:50:09;40.40;;;25.75;;
30398;SDS011;17195;50.838;7.214;2023-01-29T13:52:56;31.58;;;21.10;;
30398;SDS011;17195;50.838;7.214;2023-01-29T13:55:27;32.10;;;19.38;;
30398;SDS011;17195;50.838;7.214;2023-01-29T13:57:56;30.00;;;18.90;;
30398;SDS011;17195;50.838;7.214;2023-01-29T14:07:54;29.38;;;18.17;;
30398;SDS011;17195;50.838;7.214;2023-01-29T14:10:23;27.88;;;17.95;;
30398;SDS011;17195;50.838;7.214;2023-01-29T14:12:50;31.80;;;18.63;;
30398;SDS011;17195;50.838;7.214;2023-01-29T14:15:27;31.08;;;19.08;;
30398;SDS011;17195;50.838;7.214;2023-01-29T14:18:02;32.83;;;19.05;;
30398;SDS011;17195;50.838;7.214;2023-01-29T14:26:05;29.42;;;18.42;;
30398;SDS011;17195;50.838;7.214;2023-01-29T14:28:58;30.15;;;18.67;;
30398;SDS011;17195;50.838;7.214;2023-01-29T14:37:40;31.55;;;18.08;;
30398;SDS011;17195;50.838;7.214;2023-01-29T14:45:29;27.55;;;16.65;;
30398;SDS011;17195;50.838;7.214;2023-01-29T14:50:42;27.75;;;17.40;;
30398;SDS011;17195;50.838;7.214;2023-01-29T14:56:14;29.08;;;18.17;;
30398;SDS011;17195;50.838;7.214;2023-01-29T14:59:15;35.97;;;20.70;;
30398;SDS011;17195;50.838;7.214;2023-01-29T15:01:54;32.83;;;19.55;;
30398;SDS011;17195;50.838;7.214;2023-01-29T15:04:28;38.70;;;23.50;;
30398;SDS011;17195;50.838;7.214;2023-01-29T15:07:18;33.58;;;19.95;;
30398;SDS011;17195;50.838;7.214;2023-01-29T15:10:10;38.05;;;21.95;;
30398;SDS011;17195;50.838;7.214;2023-01-29T15:13:00;34.15;;;19.67;;
30398;SDS011;17195;50.838;7.214;2023-01-29T15:15:36;34.10;;;21.08;;
30398;SDS011;17195;50.838;7.214;2023-01-29T15:18:40;35.92;;;21.55;;
30398;SDS011;17195;50.838;7.214;2023-01-29T15:21:11;31.83;;;19.40;;
30398;SDS011;17195;50.838;7.214;2023-01-29T15:23:37;32.55;;;19.00;;
30398;SDS011;17195;50.838;7.214;2023-01-29T15:26:05;30.08;;;18.58;;
30398;SDS011;17195;50.838;7.214;2023-01-29T15:28:33;34.42;;;20.38;;
30398;SDS011;17195;50.838;7.214;2023-01-29T15:31:00;35.88;;;21.02;;
30398;SDS011;17195;50.838;7.214;2023-01-29T15:33:28;34.88;;;20.38;;
30398;SDS011;17195;50.838;7.214;2023-01-29T15:35:58;36.67;;;20.92;;
30398;SDS011;17195;50.838;7.214;2023-01-29T15:38:25;30.63;;;18.27;;
30398;SDS011;17195;50.838;7.214;2023-01-29T15:40:54;32.83;;;18.85;;
30398;SDS011;17195;50.838;7.214;2023-01-29T15:43:25;34.35;;;19.30;;
30398;SDS011;17195;50.838;7.214;2023-01-29T15:45:52;36.17;;;21.25;;
30398;SDS011;17195;50.838;7.214;2023-01-29T15:48:32;37.38;;;22.05;;
30398;SDS011;17195;50.838;7.214;2023-01-29T15:51:05;34.80;;;20.90;;
30398;SDS011;17195;50.838;7.214;2023-01-29T15:53:36;60.53;;;33.60;;
30398;SDS011;17195;50.838;7.214;2023-01-29T15:56:07;39.00;;;22.90;;
30398;SDS011;17195;50.838;7.214;2023-01-29T15:58:39;32.50;;;18.25;;
30398;SDS011;17195;50.838;7.214;2023-01-29T16:01:06;33.75;;;20.13;;
30398;SDS011;17195;50.838;7.214;2023-01-29T16:03:33;35.83;;;20.60;;
30398;SDS011;17195;50.838;7.214;2023-01-29T16:06:01;47.50;;;31.58;;
30398;SDS011;17195;50.838;7.214;2023-01-29T16:08:27;40.60;;;25.90;;
30398;SDS011;17195;50.838;7.214;2023-01-29T16:11:00;42.90;;;24.52;;
30398;SDS011;17195;50.838;7.214;2023-01-29T16:13:32;41.60;;;23.77;;
30398;SDS011;17195;50.838;7.214;2023-01-29T16:18:55;35.93;;;20.93;;
30398;SDS011;17195;50.838;7.214;2023-01-29T16:21:22;42.97;;;24.48;;
30398;SDS011;17195;50.838;7.214;2023-01-29T16:23:56;39.40;;;23.17;;
30398;SDS011;17195;50.838;7.214;2023-01-29T16:26:24;42.17;;;23.92;;
30398;SDS011;17195;50.838;7.214;2023-01-29T16:28:54;42.83;;;24.30;;
30398;SDS011;17195;50.838;7.214;2023-01-29T16:31:20;42.05;;;23.95;;
30398;SDS011;17195;50.838;7.214;2023-01-29T16:33:51;37.22;;;21.33;;
30398;SDS011;17195;50.838;7.214;2023-01-29T16:36:18;39.20;;;22.42;;
30398;SDS011;17195;50.838;7.214;2023-01-29T16:38:51;42.75;;;23.63;;
30398;SDS011;17195;50.838;7.214;2023-01-29T16:46:45;35.20;;;20.30;;
30398;SDS011;17195;50.838;7.214;2023-01-29T16:51:50;40.22;;;21.17;;
30398;SDS011;17195;50.838;7.214;2023-01-29T16:54:18;42.20;;;21.30;;
30398;SDS011;17195;50.838;7.214;2023-01-29T16:56:47;34.05;;;18.38;;
30398;SDS011;17195;50.838;7.214;2023-01-29T16:59:21;36.13;;;18.05;;
30398;SDS011;17195;50.838;7.214;2023-01-29T17:02:00;34.20;;;18.42;;
30398;SDS011;17195;50.838;7.214;2023-01-29T17:04:26;33.03;;;17.13;;
30398;SDS011;17195;50.838;7.214;2023-01-29T17:06:55;30.05;;;16.55;;
30398;SDS011;17195;50.838;7.214;2023-01-29T17:09:24;35.47;;;17.38;;
30398;SDS011;17195;50.838;7.214;2023-01-29T17:11:57;36.08;;;17.58;;
30398;SDS011;17195;50.838;7.214;2023-01-29T17:14:25;37.50;;;18.58;;
30398;SDS011;17195;50.838;7.214;2023-01-29T17:16:54;32.45;;;16.67;;
30398;SDS011;17195;50.838;7.214;2023-01-29T17:19:31;35.83;;;18.08;;
30398;SDS011;17195;50.838;7.214;2023-01-29T17:21:57;36.17;;;17.70;;